Time;durP1;ratioP1;P1;durP2;ratioP2;P2;SDS_P1;SDS_P2;PMS_P1;PMS_P2;Temp;Humidity;BMP_temperature;BMP_pressure;BME280_temperature;BME280_humidity;BME280_pressure;Samples;Min_cycle;Max_cycle;Signal;HPM_P1;HPM_P2
2022/01/04 00:01:53;;;;;;;26.70;4.68;;;;;;;;;;5053025;28;20048;-79
2022/01/04 00:04:19;;;;;;;27.45;5.57;;;;;;;;;;5070568;28;20047;-79
2022/01/04 00:06:46;;;;;;;20.95;4.50;;;;;;;;;;5069937;28;20374;-79
2022/01/04 00:09:12;;;;;;;22.60;5.03;;;;;;;;;;5069549;28;20123;-79
2022/01/04 00:11:56;;;;;;;29.08;5.00;;;;;;;;;;5070065;28;20048;-80
2022/01/04 00:14:22;;;;;;;24.85;4.70;;;;;;;;;;5038283;28;20047;-80
2022/01/04 00:16:50;;;;;;;25.38;5.88;;;;;;;;;;5069271;28;20048;-79
2022/01/04 00:19:17;;;;;;;26.77;5.38;;;;;;;;;;5052446;28;20076;-80
2022/01/04 00:21:43;;;;;;;32.20;4.93;;;;;;;;;;5069488;28;20056;-79
2022/01/04 00:24:10;;;;;;;26.05;5.15;;;;;;;;;;5068967;28;20049;-80
2022/01/04 00:26:36;;;;;;;21.50;5.30;;;;;;;;;;5069477;28;20511;-80
2022/01/04 00:29:02;;;;;;;30.05;5.10;;;;;;;;;;5071252;28;20099;-80
2022/01/04 00:31:28;;;;;;;25.88;4.55;;;;;;;;;;5052702;28;20067;-81
2022/01/04 00:33:54;;;;;;;28.85;4.93;;;;;;;;;;5070155;28;20515;-79
2022/01/04 00:36:20;;;;;;;24.83;5.43;;;;;;;;;;5069181;28;20045;-80
2022/01/04 00:38:46;;;;;;;25.65;5.30;;;;;;;;;;5052552;28;20050;-76
2022/01/04 00:41:13;;;;;;;23.77;5.40;;;;;;;;;;5068989;28;20119;-76
2022/01/04 00:43:39;;;;;;;31.48;5.45;;;;;;;;;;5051696;28;20044;-76
2022/01/04 00:46:05;;;;;;;26.92;5.55;;;;;;;;;;5052097;28;20469;-77
2022/01/04 00:50:57;;;;;;;26.58;5.10;;;;;;;;;;5070322;28;20049;-76
2022/01/04 00:53:23;;;;;;;18.73;4.22;;;;;;;;;;5051643;28;20207;-76
2022/01/04 00:55:49;;;;;;;18.60;5.30;;;;;;;;;;5068507;28;20063;-77
2022/01/04 00:58:15;;;;;;;24.02;5.43;;;;;;;;;;5068214;28;20036;-76
2022/01/04 01:00:41;;;;;;;25.77;4.80;;;;;;;;;;5068902;28;20513;-76
2022/01/04 01:03:08;;;;;;;23.35;4.90;;;;;;;;;;5051846;28;20484;-76
2022/01/04 01:05:34;;;;;;;20.63;4.32;;;;;;;;;;5068089;28;20052;-76
2022/01/04 01:08:00;;;;;;;25.15;4.82;;;;;;;;;;5068814;28;20048;-76
2022/01/04 01:10:41;;;;;;;26.58;4.78;;;;;;;;;;5068184;28;20072;-77
2022/01/04 01:13:07;;;;;;;28.05;5.28;;;;;;;;;;5071298;28;20080;-76
2022/01/04 01:15:34;;;;;;;23.35;4.80;;;;;;;;;;5075221;28;20048;-77
2022/01/04 01:18:00;;;;;;;22.95;4.65;;;;;;;;;;5075585;28;20158;-77
2022/01/04 01:20:26;;;;;;;23.35;4.63;;;;;;;;;;5075671;28;20055;-77
2022/01/04 01:22:53;;;;;;;27.00;5.03;;;;;;;;;;5075115;28;20144;-77
2022/01/04 01:25:20;;;;;;;24.90;4.78;;;;;;;;;;5075008;28;20056;-76
2022/01/04 01:27:46;;;;;;;21.00;5.30;;;;;;;;;;5076133;28;20507;-76
2022/01/04 01:30:13;;;;;;;22.58;5.05;;;;;;;;;;5074980;28;20083;-77
2022/01/04 01:32:40;;;;;;;19.92;5.43;;;;;;;;;;5075614;28;20044;-76
2022/01/04 01:35:06;;;;;;;21.40;5.55;;;;;;;;;;5075296;28;20128;-77
2022/01/04 01:37:34;;;;;;;28.23;5.75;;;;;;;;;;5075090;28;20051;-77
2022/01/04 01:40:00;;;;;;;22.50;5.80;;;;;;;;;;5075128;28;20053;-77
2022/01/04 01:42:26;;;;;;;24.17;6.60;;;;;;;;;;5058114;28;20059;-76
2022/01/04 01:44:52;;;;;;;31.10;6.60;;;;;;;;;;5075326;28;20124;-77
2022/01/04 01:47:18;;;;;;;31.73;6.60;;;;;;;;;;5074847;28;20043;-76
2022/01/04 01:49:45;;;;;;;21.60;6.68;;;;;;;;;;5075587;28;20048;-76
2022/01/04 01:52:11;;;;;;;30.63;6.80;;;;;;;;;;5075375;28;20048;-76
2022/01/04 01:54:37;;;;;;;23.48;7.38;;;;;;;;;;5057897;28;20032;-79
2022/01/04 01:57:03;;;;;;;29.15;7.90;;;;;;;;;;5075152;28;20048;-80
2022/01/04 01:59:30;;;;;;;23.10;7.32;;;;;;;;;;5058571;28;20047;-80
2022/01/04 02:01:56;;;;;;;28.92;7.07;;;;;;;;;;5058855;28;20040;-79
2022/01/04 02:04:22;;;;;;;27.48;7.57;;;;;;;;;;5075295;28;20527;-79
2022/01/04 02:06:50;;;;;;;33.85;8.85;;;;;;;;;;5058611;28;20032;-79
2022/01/04 02:09:16;;;;;;;27.55;7.47;;;;;;;;;;5058187;28;20048;-79
2022/01/04 02:11:43;;;;;;;25.15;8.20;;;;;;;;;;5075292;28;20128;-80
2022/01/04 02:14:09;;;;;;;29.40;7.55;;;;;;;;;;5075416;28;20512;-80
2022/01/04 02:16:36;;;;;;;27.90;8.40;;;;;;;;;;5074480;28;20056;-77
2022/01/04 02:19:04;;;;;;;26.70;8.65;;;;;;;;;;5074294;28;20048;-77
2022/01/04 02:21:30;;;;;;;25.65;7.82;;;;;;;;;;5074709;28;20048;-77
2022/01/04 02:23:57;;;;;;;29.08;8.43;;;;;;;;;;5073462;28;20065;-76
2022/01/04 02:26:23;;;;;;;30.42;8.52;;;;;;;;;;5053757;28;20049;-76
2022/01/04 02:28:50;;;;;;;27.33;8.10;;;;;;;;;;5072867;28;20067;-76
2022/01/04 02:31:17;;;;;;;28.17;8.65;;;;;;;;;;5071829;28;20044;-77
2022/01/04 02:33:43;;;;;;;37.08;8.15;;;;;;;;;;5071558;28;20044;-79
2022/01/04 02:36:09;;;;;;;36.22;9.95;;;;;;;;;;5071622;28;20090;-79
2022/01/04 02:38:37;;;;;;;31.30;9.48;;;;;;;;;;5071736;28;20049;-79
2022/01/04 02:41:03;;;;;;;33.42;9.80;;;;;;;;;;5071051;28;20049;-79
2022/01/04 02:43:29;;;;;;;34.30;10.55;;;;;;;;;;5070782;28;20041;-77
2022/01/04 02:45:55;;;;;;;33.47;9.82;;;;;;;;;;5071197;28;20301;-76
2022/01/04 02:48:22;;;;;;;34.92;10.60;;;;;;;;;;5053988;28;20047;-77
2022/01/04 02:50:50;;;;;;;33.78;10.88;;;;;;;;;;5071112;28;20044;-77
2022/01/04 02:53:16;;;;;;;33.38;10.65;;;;;;;;;;5071861;28;20119;-76
2022/01/04 02:55:42;;;;;;;40.35;11.55;;;;;;;;;;5054175;28;20051;-77
2022/01/04 02:58:08;;;;;;;32.83;10.63;;;;;;;;;;5070373;28;20073;-77
2022/01/04 03:00:34;;;;;;;34.70;11.85;;;;;;;;;;5068421;28;20130;-77
2022/01/04 03:03:00;;;;;;;35.72;12.30;;;;;;;;;;5066707;28;20052;-77
2022/01/04 03:05:27;;;;;;;31.88;12.10;;;;;;;;;;5069571;28;20048;-77
2022/01/04 03:07:53;;;;;;;35.90;12.30;;;;;;;;;;5053664;28;20480;-77
2022/01/04 03:10:19;;;;;;;33.50;11.80;;;;;;;;;;5070440;28;20047;-76
2022/01/04 03:12:45;;;;;;;41.08;12.80;;;;;;;;;;5070851;28;20041;-76
2022/01/04 03:15:12;;;;;;;40.42;12.52;;;;;;;;;;5054674;28;20063;-76
2022/01/04 03:17:38;;;;;;;40.92;12.95;;;;;;;;;;5070898;28;20045;-79
2022/01/04 03:20:05;;;;;;;40.72;12.10;;;;;;;;;;5054480;28;20079;-79
2022/01/04 03:22:31;;;;;;;40.22;12.90;;;;;;;;;;5054315;28;20539;-80
2022/01/04 03:24:57;;;;;;;39.15;12.75;;;;;;;;;;5053824;28;20094;-80
2022/01/04 03:27:24;;;;;;;39.80;12.70;;;;;;;;;;5069672;28;20101;-80
2022/01/04 03:29:50;;;;;;;37.75;12.48;;;;;;;;;;5053491;28;20037;-80
2022/01/04 03:32:16;;;;;;;39.10;12.90;;;;;;;;;;5070556;28;20051;-80
2022/01/04 03:34:42;;;;;;;35.47;12.52;;;;;;;;;;5071883;28;20087;-79
2022/01/04 03:37:08;;;;;;;38.83;13.35;;;;;;;;;;5069511;28;20045;-79
2022/01/04 03:39:34;;;;;;;34.15;12.30;;;;;;;;;;5069362;28;20048;-80
2022/01/04 03:42:00;;;;;;;37.63;13.27;;;;;;;;;;5070090;28;20127;-79
2022/01/04 03:44:27;;;;;;;52.78;13.35;;;;;;;;;;5053198;28;20123;-79
2022/01/04 03:46:54;;;;;;;37.35;13.27;;;;;;;;;;5069373;28;20098;-79
2022/01/04 03:49:20;;;;;;;37.97;12.55;;;;;;;;;;5069311;28;20040;-79
2022/01/04 03:51:46;;;;;;;40.03;12.63;;;;;;;;;;5058655;28;20476;-79
2022/01/04 03:54:12;;;;;;;42.88;13.18;;;;;;;;;;5049990;28;20045;-79
2022/01/04 03:56:39;;;;;;;40.38;13.20;;;;;;;;;;5049735;28;20501;-79
2022/01/04 03:59:05;;;;;;;40.67;13.55;;;;;;;;;;5032552;28;20037;-79
2022/01/04 04:01:31;;;;;;;39.72;12.50;;;;;;;;;;5049447;28;20048;-79
2022/01/04 04:03:57;;;;;;;40.85;12.63;;;;;;;;;;5049775;28;20049;-79
2022/01/04 04:06:23;;;;;;;36.35;11.93;;;;;;;;;;5049503;28;20045;-79
2022/01/04 04:08:50;;;;;;;33.63;12.15;;;;;;;;;;5049342;28;20048;-79
2022/01/04 04:11:16;;;;;;;39.35;13.10;;;;;;;;;;5049690;28;20386;-79
2022/01/04 04:13:42;;;;;;;41.45;13.35;;;;;;;;;;5051402;28;20076;-79
2022/01/04 04:16:08;;;;;;;36.15;13.10;;;;;;;;;;5049824;28;20052;-78
2022/01/04 04:18:34;;;;;;;38.72;12.63;;;;;;;;;;5032562;28;20048;-77
2022/01/04 04:21:00;;;;;;;37.25;13.52;;;;;;;;;;5049319;28;20417;-76
2022/01/04 04:23:27;;;;;;;35.95;13.13;;;;;;;;;;5049892;28;20398;-79
2022/01/04 04:25:53;;;;;;;50.03;14.43;;;;;;;;;;5032318;28;20384;-79
2022/01/04 04:28:19;;;;;;;36.47;13.45;;;;;;;;;;5048266;28;20052;-79
2022/01/04 04:30:45;;;;;;;33.90;13.48;;;;;;;;;;5054912;28;20037;-79
2022/01/04 04:33:11;;;;;;;40.88;14.38;;;;;;;;;;5053014;28;20344;-79
2022/01/04 04:35:37;;;;;;;42.03;14.70;;;;;;;;;;5068677;28;20047;-79
2022/01/04 04:38:03;;;;;;;44.30;13.95;;;;;;;;;;5069272;28;20040;-79
2022/01/04 04:40:29;;;;;;;46.38;15.25;;;;;;;;;;5068611;28;20052;-79
2022/01/04 04:42:56;;;;;;;35.17;13.73;;;;;;;;;;5068714;28;20055;-79
2022/01/04 04:45:22;;;;;;;39.97;13.82;;;;;;;;;;5068574;28;20504;-78
2022/01/04 04:47:48;;;;;;;42.38;13.40;;;;;;;;;;5068624;28;20128;-77
2022/01/04 04:50:14;;;;;;;43.55;13.45;;;;;;;;;;5068250;28;20051;-76
2022/01/04 04:52:40;;;;;;;39.83;13.50;;;;;;;;;;5068819;28;20037;-77
2022/01/04 04:55:07;;;;;;;38.85;12.30;;;;;;;;;;5069745;28;20484;-77
2022/01/04 04:57:33;;;;;;;37.03;13.00;;;;;;;;;;5068442;28;20603;-76
2022/01/04 04:59:59;;;;;;;40.30;13.68;;;;;;;;;;5068559;28;20071;-77
2022/01/04 05:02:26;;;;;;;35.08;12.43;;;;;;;;;;5066220;28;20040;-79
2022/01/04 05:04:52;;;;;;;41.85;12.73;;;;;;;;;;5067993;28;20063;-79
2022/01/04 05:07:18;;;;;;;40.72;13.32;;;;;;;;;;5067457;28;20094;-79
2022/01/04 05:09:44;;;;;;;41.22;12.10;;;;;;;;;;5052553;28;20047;-79
2022/01/04 05:12:10;;;;;;;34.75;12.13;;;;;;;;;;5070054;28;20159;-76
2022/01/04 05:14:44;;;;;;;34.08;12.80;;;;;;;;;;5069052;28;20056;-79
2022/01/04 05:17:11;;;;;;;35.25;12.00;;;;;;;;;;5068574;28;20048;-79
2022/01/04 05:19:37;;;;;;;37.72;11.48;;;;;;;;;;5068477;28;20072;-79
2022/01/04 05:22:03;;;;;;;40.47;11.70;;;;;;;;;;5069335;28;20420;-79
2022/01/04 05:24:29;;;;;;;33.83;11.07;;;;;;;;;;5068390;28;20059;-79
2022/01/04 05:26:55;;;;;;;37.15;11.27;;;;;;;;;;5068391;28;20094;-79
2022/01/04 05:29:21;;;;;;;38.10;10.98;;;;;;;;;;5068430;28;20468;-79
2022/01/04 05:31:47;;;;;;;37.50;10.48;;;;;;;;;;5068844;28;20124;-79
2022/01/04 05:34:13;;;;;;;31.30;10.57;;;;;;;;;;5068927;28;20068;-79
2022/01/04 05:36:39;;;;;;;32.63;10.00;;;;;;;;;;5069257;28;20067;-79
2022/01/04 05:39:06;;;;;;;36.88;10.65;;;;;;;;;;5070483;28;20525;-79
2022/01/04 05:41:33;;;;;;;34.08;10.68;;;;;;;;;;5068139;28;20548;-80
2022/01/04 05:43:59;;;;;;;32.03;10.27;;;;;;;;;;5068059;28;20063;-81
2022/01/04 05:46:25;;;;;;;28.58;8.77;;;;;;;;;;5069204;28;20044;-80
2022/01/04 05:48:51;;;;;;;28.08;8.60;;;;;;;;;;5069350;28;20114;-80
2022/01/04 05:51:17;;;;;;;26.40;8.27;;;;;;;;;;5067371;28;20489;-80
2022/01/04 05:53:44;;;;;;;24.90;8.15;;;;;;;;;;5068177;28;20048;-79
2022/01/04 05:56:10;;;;;;;24.70;7.88;;;;;;;;;;5068332;28;20040;-80
2022/01/04 05:58:36;;;;;;;29.83;7.00;;;;;;;;;;5068452;28;20055;-80
2022/01/04 06:01:02;;;;;;;22.63;7.05;;;;;;;;;;5072102;28;20080;-80
2022/01/04 06:03:28;;;;;;;23.60;6.57;;;;;;;;;;5071828;28;20083;-80
2022/01/04 06:05:55;;;;;;;21.45;6.60;;;;;;;;;;5072539;28;20052;-80
2022/01/04 06:08:22;;;;;;;25.88;7.22;;;;;;;;;;5071521;28;20052;-80
2022/01/04 06:10:51;;;;;;;24.60;7.82;;;;;;;;;;5071820;28;20036;-80
2022/01/04 06:16:03;;;;;;;29.23;10.07;;;;;;;;;;5071758;28;20049;-79
2022/01/04 06:18:29;;;;;;;27.67;10.10;;;;;;;;;;5071284;28;20186;-79
2022/01/04 06:20:56;;;;;;;29.42;9.57;;;;;;;;;;5071660;28;20420;-79
2022/01/04 06:23:22;;;;;;;24.73;9.80;;;;;;;;;;5071149;28;20507;-79
2022/01/04 06:25:49;;;;;;;32.97;11.05;;;;;;;;;;5071475;28;20059;-79
2022/01/04 06:28:15;;;;;;;32.70;12.65;;;;;;;;;;5071732;28;20052;-79
2022/01/04 06:30:41;;;;;;;31.27;12.70;;;;;;;;;;5071847;28;20040;-76
2022/01/04 06:33:07;;;;;;;34.95;13.40;;;;;;;;;;5071430;28;20132;-77
2022/01/04 06:35:37;;;;;;;37.08;14.13;;;;;;;;;;5054237;28;20131;-77
2022/01/04 06:38:03;;;;;;;38.63;14.93;;;;;;;;;;5054771;28;20071;-76
2022/01/04 06:40:29;;;;;;;41.28;16.05;;;;;;;;;;5070838;28;20051;-77
2022/01/04 06:42:56;;;;;;;44.45;15.70;;;;;;;;;;5071037;28;20127;-76
2022/01/04 06:45:23;;;;;;;49.35;16.17;;;;;;;;;;5071273;28;20561;-77
2022/01/04 06:47:49;;;;;;;41.38;15.93;;;;;;;;;;5071224;28;20484;-76
2022/01/04 06:50:18;;;;;;;41.72;15.70;;;;;;;;;;5070598;28;20032;-77
2022/01/04 06:52:44;;;;;;;40.97;15.30;;;;;;;;;;5070727;28;20048;-76
2022/01/04 06:55:10;;;;;;;38.35;15.73;;;;;;;;;;5037312;28;20093;-77
2022/01/04 06:57:36;;;;;;;35.03;13.90;;;;;;;;;;5053532;28;20095;-76
2022/01/04 07:00:04;;;;;;;36.65;14.27;;;;;;;;;;5071452;28;20048;-76
2022/01/04 07:02:30;;;;;;;35.55;13.07;;;;;;;;;;5071543;28;20048;-77
2022/01/04 07:04:56;;;;;;;31.20;12.90;;;;;;;;;;5072119;28;20044;-77
2022/01/04 07:07:23;;;;;;;28.15;12.55;;;;;;;;;;5071343;28;20117;-77
2022/01/04 07:09:50;;;;;;;40.38;13.50;;;;;;;;;;5072398;28;20133;-77
2022/01/04 07:12:16;;;;;;;35.33;14.32;;;;;;;;;;5070567;28;20041;-77
2022/01/04 07:14:42;;;;;;;35.55;15.48;;;;;;;;;;5070615;28;20486;-76
2022/01/04 07:17:08;;;;;;;43.60;14.77;;;;;;;;;;5053579;28;20080;-76
2022/01/04 07:19:34;;;;;;;45.28;14.80;;;;;;;;;;5071097;28;20043;-76
2022/01/04 07:22:00;;;;;;;34.08;14.82;;;;;;;;;;5069823;28;20044;-77
2022/01/04 07:24:26;;;;;;;41.70;15.23;;;;;;;;;;5069516;28;20091;-76
2022/01/04 07:26:53;;;;;;;35.35;14.68;;;;;;;;;;5070081;28;20060;-77
2022/01/04 07:29:19;;;;;;;38.75;13.70;;;;;;;;;;5053577;28;20127;-76
2022/01/04 07:31:45;;;;;;;37.30;12.88;;;;;;;;;;5070458;28;20462;-76
2022/01/04 07:34:11;;;;;;;38.75;13.27;;;;;;;;;;5070000;28;20090;-76
2022/01/04 07:36:37;;;;;;;34.20;13.15;;;;;;;;;;5071195;28;20521;-80
2022/01/04 07:39:03;;;;;;;31.45;12.73;;;;;;;;;;5069944;28;20040;-79
2022/01/04 07:41:29;;;;;;;42.83;13.88;;;;;;;;;;5069488;28;20076;-79
2022/01/04 07:43:55;;;;;;;31.92;13.38;;;;;;;;;;5070185;28;20040;-80
2022/01/04 07:46:23;;;;;;;38.25;13.23;;;;;;;;;;5069759;28;20037;-79
2022/01/04 07:48:50;;;;;;;35.83;13.40;;;;;;;;;;5070855;28;20049;-79
2022/01/04 07:51:17;;;;;;;39.50;14.23;;;;;;;;;;5069878;28;20447;-79
2022/01/04 07:53:43;;;;;;;39.03;13.77;;;;;;;;;;5103790;28;20071;-80
2022/01/04 07:56:09;;;;;;;36.50;14.48;;;;;;;;;;5069642;28;20032;-79
2022/01/04 07:58:35;;;;;;;39.50;14.65;;;;;;;;;;5069864;28;20048;-79
2022/01/04 08:01:01;;;;;;;41.83;14.20;;;;;;;;;;5071597;28;20041;-80
2022/01/04 08:03:27;;;;;;;44.03;15.43;;;;;;;;;;5070437;28;20040;-77
2022/01/04 08:05:53;;;;;;;50.70;14.95;;;;;;;;;;5069399;28;20036;-76
2022/01/04 08:08:19;;;;;;;44.42;15.32;;;;;;;;;;5052174;28;20048;-76
2022/01/04 08:10:47;;;;;;;42.30;15.02;;;;;;;;;;5052886;28;20121;-76
2022/01/04 08:13:14;;;;;;;44.90;15.32;;;;;;;;;;5070096;28;20059;-76
2022/01/04 08:15:40;;;;;;;40.95;15.00;;;;;;;;;;5053534;28;20106;-76
2022/01/04 08:18:06;;;;;;;45.97;14.77;;;;;;;;;;5069749;28;20484;-76
2022/01/04 08:20:32;;;;;;;39.10;14.10;;;;;;;;;;5070429;28;20494;-76
2022/01/04 08:22:59;;;;;;;41.45;14.05;;;;;;;;;;5067987;28;20059;-76
2022/01/04 08:25:25;;;;;;;43.25;14.25;;;;;;;;;;5068955;28;20503;-77
2022/01/04 08:27:54;;;;;;;48.95;13.93;;;;;;;;;;5068713;28;20040;-77
2022/01/04 08:30:20;;;;;;;39.42;13.68;;;;;;;;;;5070026;28;20051;-77
2022/01/04 08:32:46;;;;;;;37.45;12.13;;;;;;;;;;5069622;28;20041;-77
2022/01/04 08:35:13;;;;;;;39.50;12.18;;;;;;;;;;5068750;28;20090;-77
2022/01/04 08:37:39;;;;;;;37.10;11.80;;;;;;;;;;5068633;28;20123;-77
2022/01/04 08:40:06;;;;;;;34.35;10.55;;;;;;;;;;5069113;28;20048;-77
2022/01/04 08:42:34;;;;;;;30.95;9.93;;;;;;;;;;5069333;28;20408;-76
2022/01/04 08:45:00;;;;;;;31.13;9.98;;;;;;;;;;5068746;28;20036;-80
2022/01/04 08:47:27;;;;;;;28.90;9.38;;;;;;;;;;5069820;28;20045;-83
2022/01/04 08:49:53;;;;;;;29.75;9.13;;;;;;;;;;5052203;28;20093;-80
2022/01/04 08:52:19;;;;;;;32.35;9.32;;;;;;;;;;5068994;28;20044;-80
2022/01/04 08:54:45;;;;;;;26.90;8.05;;;;;;;;;;5069217;28;20037;-82
2022/01/04 08:57:11;;;;;;;26.98;7.95;;;;;;;;;;5069726;28;20049;-80
2022/01/04 08:59:37;;;;;;;29.23;7.50;;;;;;;;;;5067964;28;20492;-81
2022/01/04 09:02:04;;;;;;;27.33;6.60;;;;;;;;;;5068685;28;20106;-80
2022/01/04 09:04:30;;;;;;;30.95;6.55;;;;;;;;;;5068311;28;20130;-80
2022/01/04 09:06:56;;;;;;;29.67;6.40;;;;;;;;;;5069137;28;20072;-80
2022/01/04 09:09:22;;;;;;;23.23;5.95;;;;;;;;;;5069439;28;20037;-80
2022/01/04 09:11:48;;;;;;;22.92;5.95;;;;;;;;;;5068836;28;20090;-77
2022/01/04 09:19:30;;;;;;;23.02;6.30;;;;;;;;;;5068018;28;20036;-76
2022/01/04 09:21:57;;;;;;;23.80;5.85;;;;;;;;;;5069724;28;20040;-77
2022/01/04 09:24:23;;;;;;;17.70;5.07;;;;;;;;;;5068333;28;20068;-80
2022/01/04 09:26:50;;;;;;;15.88;5.25;;;;;;;;;;5068522;28;20040;-77
2022/01/04 09:29:18;;;;;;;18.75;4.78;;;;;;;;;;5051423;28;20094;-77
2022/01/04 09:31:46;;;;;;;17.02;5.45;;;;;;;;;;5067991;28;20093;-77
2022/01/04 09:34:12;;;;;;;24.70;5.80;;;;;;;;;;5069414;28;20087;-77
2022/01/04 09:36:39;;;;;;;25.42;6.43;;;;;;;;;;5071855;28;20047;-77
2022/01/04 09:39:08;;;;;;;22.77;6.40;;;;;;;;;;5055264;28;20040;-77
2022/01/04 09:41:35;;;;;;;25.00;6.80;;;;;;;;;;5072333;28;20095;-77
2022/01/04 09:44:02;;;;;;;28.00;6.95;;;;;;;;;;5072186;28;20040;-78
2022/01/04 09:46:29;;;;;;;18.55;5.57;;;;;;;;;;5072604;28;20070;-78
2022/01/04 09:48:55;;;;;;;20.02;4.45;;;;;;;;;;5055443;28;20037;-78
2022/01/04 09:51:21;;;;;;;16.35;4.70;;;;;;;;;;5055501;28;20051;-78
2022/01/04 09:53:49;;;;;;;19.88;4.60;;;;;;;;;;5055615;28;20492;-80
2022/01/04 09:56:15;;;;;;;17.05;3.88;;;;;;;;;;5071324;28;20041;-80
2022/01/04 09:58:41;;;;;;;13.90;2.97;;;;;;;;;;5055342;28;20063;-80
2022/01/04 10:01:07;;;;;;;12.48;2.40;;;;;;;;;;5071424;28;20048;-80
2022/01/04 10:03:35;;;;;;;6.53;1.92;;;;;;;;;;5072129;28;20055;-78
2022/01/04 10:06:09;;;;;;;11.85;1.80;;;;;;;;;;5072125;28;20048;-79
2022/01/04 10:08:49;;;;;;;7.15;1.52;;;;;;;;;;5071712;28;20573;-79
2022/01/04 10:11:15;;;;;;;9.45;1.80;;;;;;;;;;5055561;28;20488;-78
2022/01/04 10:13:41;;;;;;;6.03;1.90;;;;;;;;;;5071771;28;20052;-78
2022/01/04 10:16:15;;;;;;;6.32;1.67;;;;;;;;;;5072742;28;20083;-78
2022/01/04 10:18:41;;;;;;;7.60;2.20;;;;;;;;;;5072637;28;20396;-78
2022/01/04 10:21:07;;;;;;;4.32;1.70;;;;;;;;;;5071428;28;20055;-78
2022/01/04 10:23:43;;;;;;;7.25;1.80;;;;;;;;;;5070809;28;20060;-79
2022/01/04 10:26:09;;;;;;;5.50;1.40;;;;;;;;;;5072145;28;20094;-78
2022/01/04 10:28:37;;;;;;;5.20;1.17;;;;;;;;;;5070892;28;20538;-78
2022/01/04 10:31:07;;;;;;;5.50;0.90;;;;;;;;;;5054384;28;20484;-77
2022/01/04 10:33:34;;;;;;;7.45;1.48;;;;;;;;;;5071222;28;20041;-80
2022/01/04 10:36:01;;;;;;;6.35;1.20;;;;;;;;;;5071348;28;20485;-80
2022/01/04 10:38:30;;;;;;;6.05;1.10;;;;;;;;;;5070858;28;20400;-80
2022/01/04 10:41:07;;;;;;;6.78;0.93;;;;;;;;;;5054585;28;20052;-80
2022/01/04 10:43:37;;;;;;;7.38;1.27;;;;;;;;;;5072359;28;20309;-80
2022/01/04 10:46:04;;;;;;;5.00;1.27;;;;;;;;;;5070436;28;20127;-80
2022/01/04 10:48:41;;;;;;;7.18;1.83;;;;;;;;;;5072757;28;20373;-80
2022/01/04 10:51:12;;;;;;;7.47;1.80;;;;;;;;;;5072187;28;20048;-80
2022/01/04 10:53:38;;;;;;;8.65;2.40;;;;;;;;;;5070783;28;20040;-78
2022/01/04 10:56:05;;;;;;;9.57;2.38;;;;;;;;;;5071444;28;20040;-77
2022/01/04 10:58:42;;;;;;;4.82;1.90;;;;;;;;;;5072380;28;20040;-78
2022/01/04 11:01:11;;;;;;;4.97;1.10;;;;;;;;;;5072719;28;20059;-80
2022/01/04 11:03:39;;;;;;;3.65;1.00;;;;;;;;;;5072126;28;20051;-79
2022/01/04 11:06:16;;;;;;;3.83;0.88;;;;;;;;;;5071837;28;20055;-80
2022/01/04 11:08:42;;;;;;;3.35;0.57;;;;;;;;;;5053841;28;20480;-79
2022/01/04 11:11:09;;;;;;;2.05;0.50;;;;;;;;;;5072531;28;20041;-77
2022/01/04 11:13:35;;;;;;;2.65;0.60;;;;;;;;;;5053086;28;20052;-77
2022/01/04 11:16:02;;;;;;;5.15;0.68;;;;;;;;;;5070463;28;20063;-77
2022/01/04 11:18:29;;;;;;;2.85;0.50;;;;;;;;;;5070241;28;20050;-78
2022/01/04 11:20:55;;;;;;;2.20;0.60;;;;;;;;;;5070544;28;20127;-76
2022/01/04 11:23:29;;;;;;;2.92;0.80;;;;;;;;;;5069969;28;20575;-79
2022/01/04 11:25:56;;;;;;;6.43;1.20;;;;;;;;;;5071638;28;20563;-80
2022/01/04 11:28:22;;;;;;;5.82;0.80;;;;;;;;;;5069722;28;20135;-77
2022/01/04 11:30:52;;;;;;;1.45;0.60;;;;;;;;;;5069954;28;20572;-78
2022/01/04 11:33:18;;;;;;;4.25;0.70;;;;;;;;;;5053346;28;20454;-78
2022/01/04 11:35:46;;;;;;;3.55;0.80;;;;;;;;;;5070196;28;20365;-77
2022/01/04 11:38:12;;;;;;;7.00;0.80;;;;;;;;;;5069951;28;20443;-78
2022/01/04 11:40:42;;;;;;;4.90;0.80;;;;;;;;;;5069285;28;20379;-77
2022/01/04 11:43:26;;;;;;;3.17;0.75;;;;;;;;;;5069410;28;20044;-78
2022/01/04 11:45:52;;;;;;;5.38;0.80;;;;;;;;;;5070060;28;20450;-80
2022/01/04 11:48:47;;;;;;;4.22;0.75;;;;;;;;;;5069622;28;20076;-79
2022/01/04 11:51:34;;;;;;;5.13;0.90;;;;;;;;;;5060638;28;20048;-79
2022/01/04 11:54:20;;;;;;;7.47;2.55;;;;;;;;;;5062385;28;20044;-80
2022/01/04 11:56:58;;;;;;;7.72;2.15;;;;;;;;;;5070866;28;20033;-79
2022/01/04 11:59:33;;;;;;;6.82;1.10;;;;;;;;;;5070423;28;20093;-79
2022/01/04 12:02:19;;;;;;;8.38;0.90;;;;;;;;;;5070339;28;20051;-79
2022/01/04 12:04:49;;;;;;;5.00;0.98;;;;;;;;;;5052556;28;20037;-80
2022/01/04 12:07:34;;;;;;;8.00;0.95;;;;;;;;;;5069309;28;20120;-80
2022/01/04 12:10:19;;;;;;;2.40;0.75;;;;;;;;;;5069430;28;20500;-79
2022/01/04 12:12:54;;;;;;;5.55;1.30;;;;;;;;;;5052113;28;20043;-80
2022/01/04 12:15:36;;;;;;;7.70;1.03;;;;;;;;;;5052717;28;20036;-80
2022/01/04 12:18:02;;;;;;;5.53;0.90;;;;;;;;;;5052766;28;20309;-80
2022/01/04 12:20:46;;;;;;;5.53;1.10;;;;;;;;;;5068781;28;20045;-80
2022/01/04 12:23:25;;;;;;;4.68;1.17;;;;;;;;;;5070172;28;20083;-79
2022/01/04 12:26:03;;;;;;;5.57;0.95;;;;;;;;;;5070150;28;20052;-80
2022/01/04 12:28:30;;;;;;;4.43;0.90;;;;;;;;;;5068529;28;20492;-80
2022/01/04 12:31:25;;;;;;;4.80;1.17;;;;;;;;;;5052346;28;20487;-80
2022/01/04 12:34:01;;;;;;;6.75;0.70;;;;;;;;;;5050401;28;20063;-80
2022/01/04 12:36:31;;;;;;;4.43;0.75;;;;;;;;;;5068184;28;20040;-80
2022/01/04 12:38:58;;;;;;;6.00;0.85;;;;;;;;;;5068951;28;20452;-79
2022/01/04 12:41:25;;;;;;;6.13;1.20;;;;;;;;;;5068178;28;20701;-80
2022/01/04 12:43:51;;;;;;;4.05;0.70;;;;;;;;;;5052131;28;20056;-80
2022/01/04 12:46:28;;;;;;;6.30;1.40;;;;;;;;;;5052243;28;20056;-81
2022/01/04 12:48:56;;;;;;;5.03;1.00;;;;;;;;;;5068246;28;20075;-80
2022/01/04 12:51:34;;;;;;;5.95;0.82;;;;;;;;;;5068000;28;20110;-80
2022/01/04 12:54:06;;;;;;;5.93;1.30;;;;;;;;;;5068115;28;20071;-80
2022/01/04 12:56:33;;;;;;;7.13;1.58;;;;;;;;;;5051751;28;20119;-80
2022/01/04 12:58:59;;;;;;;8.25;1.30;;;;;;;;;;5051468;28;20047;-80
2022/01/04 13:01:30;;;;;;;4.05;0.73;;;;;;;;;;5068231;28;20049;-80
2022/01/04 13:03:56;;;;;;;4.63;0.70;;;;;;;;;;5068553;28;20047;-80
2022/01/04 13:06:22;;;;;;;5.55;1.48;;;;;;;;;;5068785;28;20097;-80
2022/01/04 13:08:55;;;;;;;4.40;0.90;;;;;;;;;;5069393;28;20037;-81
2022/01/04 13:11:21;;;;;;;4.90;1.00;;;;;;;;;;5051275;28;20068;-80
2022/01/04 13:13:57;;;;;;;6.18;1.23;;;;;;;;;;5068725;28;20048;-81
2022/01/04 13:16:31;;;;;;;4.78;1.08;;;;;;;;;;5070178;28;20041;-80
2022/01/04 13:19:15;;;;;;;7.15;1.55;;;;;;;;;;5069801;28;20112;-80
2022/01/04 13:21:41;;;;;;;9.25;1.60;;;;;;;;;;5070293;28;20060;-79
2022/01/04 13:24:08;;;;;;;9.63;1.58;;;;;;;;;;5072759;28;20428;-80
2022/01/04 13:26:34;;;;;;;6.70;1.30;;;;;;;;;;5070009;28;20055;-80
2022/01/04 13:29:01;;;;;;;5.97;1.35;;;;;;;;;;5069730;28;20130;-80
2022/01/04 13:31:28;;;;;;;5.35;1.05;;;;;;;;;;5068563;28;20500;-80
2022/01/04 13:33:54;;;;;;;10.02;1.20;;;;;;;;;;5069180;28;20124;-80
2022/01/04 13:36:25;;;;;;;8.43;1.20;;;;;;;;;;5068780;28;20055;-80
2022/01/04 13:38:56;;;;;;;8.93;1.00;;;;;;;;;;5069186;28;20074;-78
2022/01/04 13:41:36;;;;;;;6.93;1.45;;;;;;;;;;5050986;28;20041;-77
2022/01/04 13:44:04;;;;;;;8.63;0.98;;;;;;;;;;5051760;28;20086;-77
2022/01/04 13:46:31;;;;;;;6.78;1.00;;;;;;;;;;5069414;28;20046;-77
2022/01/04 13:48:59;;;;;;;10.10;1.30;;;;;;;;;;5067970;28;20052;-77
2022/01/04 13:51:26;;;;;;;6.68;1.02;;;;;;;;;;5050980;28;20553;-77
2022/01/04 13:53:55;;;;;;;6.47;1.38;;;;;;;;;;5067946;28;20040;-76
2022/01/04 13:56:23;;;;;;;7.15;1.00;;;;;;;;;;5068000;28;20044;-77
2022/01/04 13:58:54;;;;;;;5.70;1.02;;;;;;;;;;5068574;28;20045;-76
2022/01/04 14:01:32;;;;;;;4.85;0.77;;;;;;;;;;5051326;28;20086;-77
2022/01/04 14:03:59;;;;;;;6.78;0.93;;;;;;;;;;5051387;28;20044;-80
2022/01/04 14:06:28;;;;;;;6.47;0.70;;;;;;;;;;5069151;28;20504;-80
2022/01/04 14:08:55;;;;;;;5.18;0.95;;;;;;;;;;5068020;28;20519;-80
2022/01/04 14:11:28;;;;;;;7.00;1.10;;;;;;;;;;5068189;28;20442;-80
2022/01/04 14:13:55;;;;;;;6.97;1.00;;;;;;;;;;5051732;28;20041;-80
2022/01/04 14:16:22;;;;;;;6.90;1.00;;;;;;;;;;5068372;28;20083;-80
2022/01/04 14:19:08;;;;;;;4.47;0.80;;;;;;;;;;5068227;28;20542;-81
2022/01/04 14:21:38;;;;;;;7.15;0.93;;;;;;;;;;5071135;28;20546;-81
2022/01/04 14:24:25;;;;;;;5.13;0.65;;;;;;;;;;5071500;28;20577;-81
2022/01/04 14:26:51;;;;;;;5.60;1.00;;;;;;;;;;5071991;28;20492;-80
2022/01/04 14:29:27;;;;;;;6.10;0.82;;;;;;;;;;5054809;28;20036;-77
2022/01/04 14:31:56;;;;;;;6.72;0.88;;;;;;;;;;5070638;28;20051;-77
2022/01/04 14:34:22;;;;;;;7.30;1.15;;;;;;;;;;5054061;28;20052;-77
2022/01/04 14:36:48;;;;;;;7.18;1.10;;;;;;;;;;5071537;28;20036;-76
2022/01/04 14:39:14;;;;;;;7.90;0.85;;;;;;;;;;5071490;28;20481;-76
2022/01/04 14:41:40;;;;;;;9.63;0.80;;;;;;;;;;5072681;28;20551;-80
2022/01/04 14:44:06;;;;;;;8.05;0.80;;;;;;;;;;5070864;28;20052;-80